Wednesday, July 1, 2015, 11:44 PM EDT

KNHK, Nas Patuxent River Md

Location: Patuxent River, MD, United States Lat: 38.3
Local Time: 11:44 PM EDT ( 3:44 GMT) Lon: -76.4
Time Zone: US/Eastern Elev: 39 ft

Show me the last for .
Show Decoded

2015-07-01 22:52 METAR KNHK 020252Z 22007KT 10SM FEW050 FEW160 SCT250 24/21 A2989 RMK AO2 SLP122
                 OCNL LTGIC DSNT NW CB DSNT NW T02440206 51013 =
2015-07-01 20:52 METAR KNHK 020052Z 21005KT 10SM FEW050 FEW100 26/20 A2986 RMK AO2 SLP113 CB DSNT
                 NW-N T02560200 =
2015-07-01 19:52 METAR KNHK 012352Z 22004KT 10SM FEW050 FEW150 SCT250 27/20 A2985 RMK AO2 SLP108
                 CB DSNT NW T02720200 10300 20272 53001 =
2015-07-01 17:52 METAR KNHK 012152Z 24009KT 10SM FEW200 SCT250 29/19 A2984 RMK AO2 SLP103
                 T02890189 =
2015-07-01 15:52 METAR KNHK 011952Z 26009KT 10SM SCT044 SCT200 30/19 A2985 RMK AO2 SLP108
                 T03000194 =
2015-07-01 14:52 METAR KNHK 011852Z 24007KT 10SM FEW047 29/19 A2986 RMK AO2 SLP111 T02890189 =
2015-07-01 13:52 METAR KNHK 011752Z VRB06KT 10SM FEW040 28/19 A2987 RMK AO2 SLP115 T02830189
                 10289 20222 58001 =
2015-07-01 12:52 METAR KNHK 011652Z 26006KT 10SM FEW040 28/17 A2988 RMK AO2 SLP118 T02780172 =
2015-07-01 11:52 METAR KNHK 011552Z 22006KT 10SM CLR 27/19 A2988 RMK AO2 SLP119 T02670194 =
2015-07-01 10:52 METAR KNHK 011452Z 24003KT 10SM CLR 26/19 A2987 RMK AO2 SLP115 T02610189 51004 =
2015-07-01 09:52 METAR KNHK 011352Z 00000KT 10SM FEW015 24/20 A2987 RMK AO2 SLP113 T02440200 =
2015-07-01 08:34 METAR KNHK 011234Z 26008KT 10SM SCT011 23/20 A2986 RMK AO2 T02280200 =
2015-07-01 08:10 METAR KNHK 011210Z 27010KT 10SM BKN010 22/20 A2987 RMK AO2 CIG 007V012 T02220200
                 =
2015-07-01 07:52 METAR KNHK 011152Z 25008KT 10SM SCT010 SCT200 22/21 A2986 RMK AO2 SLP111 60008
                 70016 T02220206 10228 20206 50008 =
2015-07-01 06:52 METAR KNHK 011052Z 25006KT 10SM BKN010 BKN200 21/20 A2986 RMK AO2 SLP112
                 T02110200 =
2015-07-01 05:52 METAR KNHK 010952Z 21006KT 10SM FEW015 SCT140 BKN200 21/19 A2985 RMK AO2 SLP108
                 P0001 T02060194 =
2015-07-01 04:52 METAR KNHK 010852Z AUTO 15003KT 10SM SCT120 21/20 A2983 RMK AO2 RAE03 SLP103
                 P0003 60007 T02060200 53008 =
2015-07-01 03:52 METAR KNHK 010752Z AUTO 08004KT 10SM -RA FEW060 BKN110 21/19 A2980 RMK AO2
                 SLP090 P0004 T02060194 =
2015-07-01 02:52 METAR KNHK 010652Z AUTO 29008KT 9SM -RA FEW047 BKN110 22/19 A2983 RMK AO2 WSHFT
                 0607 RAB36 SLP100 P0000 T02170194 =
2015-07-01 02:27 METAR KNHK 010627Z AUTO 27011KT 10SM FEW048 SCT090 22/19 A2984 RMK AO2 WSHFT
                 0607 T02220189 =
2015-07-01 00:52 METAR KNHK 010452Z AUTO 22016G23KT 10SM SCT095 BKN110 22/19 A2982 RMK AO2 PK WND
                 22032/0411 RAB0354E45 TSB08E38 PRESFR SLP096 P0006 T02220189 403000222 =
2015-07-01 00:44 METAR KNHK 010444Z AUTO 21016G22KT 10SM -RA FEW085 BKN110 22/19 A2982 RMK AO2 PK
                 WND 22032/0411 RAB0354 TSB08E38 PRESFR P0006 T02220194 =
2015-06-30 23:52 METAR KNHK 010352Z AUTO 19017G33KT 9SM TS SCT110 26/21 A2984 RMK AO2 PK WND
                 22033/0345 TSB47B48 SLP105 T02610206 =

Support USWX by starting your Amazon purchase here.